Schneifelwetter: Wetterstation Hallschlag, 537 m . NN
Wetterdaten: Sonntag, 18.11.2012
Datum Zeit Temp. A. Feuchte A. Luftdruck Regen Wind Richtung Richtung Sonnenschein T Regen Taupunkt Windchill
18.11.2012 00:01 5,9 C 99 % 1008 hPa 0,0 l/m 13,0 km/h (3 Bft) W-SW45 255 0 min 0 min 5,8 C 1,2 C
18.11.2012 00:16 6,0 C 99 % 1008 hPa 0,0 l/m 15,2 km/h (3 Bft) W-SW22.5 250 0 min 0 min 5,9 C 0,2 C
18.11.2012 00:30 6,0 C 99 % 1008 hPa 0,0 l/m 15,8 km/h (3 Bft) W-SW22.5 255 0 min 0 min 5,9 C -0,1 C
18.11.2012 00:45 6,1 C 99 % 1008 hPa 0,0 l/m 13,5 km/h (3 Bft) W-SW22.5 255 0 min 0 min 6,0 C 1,2 C
18.11.2012 01:00 6,1 C 99 % 1008 hPa 0,0 l/m 11,1 km/h (2 Bft) W-SW22.5 250 0 min 0 min 6,0 C 2,6 C
18.11.2012 01:15 6,0 C 99 % 1008 hPa 0,0 l/m 15,2 km/h (3 Bft) W-SW22.5 255 0 min 0 min 5,9 C 0,2 C
18.11.2012 01:30 6,0 C 99 % 1008 hPa 0,0 l/m 15,2 km/h (3 Bft) W-SW22.5 255 0 min 0 min 5,9 C 0,2 C
18.11.2012 01:45 6,0 C 99 % 1008 hPa 0,0 l/m 6,3 km/h (2 Bft) SW22.5 215 0 min 0 min 5,9 C 6,0 C
18.11.2012 02:00 6,1 C 99 % 1008 hPa 0,0 l/m 10,8 km/h (2 Bft) W-SW22.5 255 0 min 0 min 6,0 C 2,8 C
18.11.2012 02:15 6,2 C 99 % 1008 hPa 0,0 l/m 11,5 km/h (2 Bft) W-SW22.5 255 0 min 0 min 6,1 C 2,4 C
18.11.2012 02:30 6,3 C 99 % 1008 hPa 0,0 l/m 9,8 km/h (2 Bft) W-SW22.5 250 0 min 0 min 6,2 C 3,6 C
18.11.2012 02:45 6,3 C 99 % 1008 hPa 0,0 l/m 0,8 km/h (0 Bft) SW22.5 225 0 min 0 min 6,2 C 6,3 C
18.11.2012 03:00 6,3 C 99 % 1008 hPa 0,0 l/m 0,9 km/h (0 Bft) W-SW22.5 250 0 min 0 min 6,2 C 6,3 C
18.11.2012 03:15 6,3 C 99 % 1008 hPa 0,0 l/m 10,2 km/h (2 Bft) W22.5 260 0 min 0 min 6,2 C 3,4 C
18.11.2012 03:30 6,1 C 99 % 1008 hPa 0,0 l/m 7,4 km/h (2 Bft) W-SW22.5 250 0 min 0 min 6,0 C 5,3 C
18.11.2012 03:45 6,2 C 99 % 1008 hPa 0,0 l/m 0,0 km/h (0 Bft) W-SW 250 0 min 0 min 6,1 C 6,2 C
18.11.2012 04:00 6,1 C 99 % 1008 hPa 0,0 l/m 0,0 km/h (0 Bft) W-SW 250 0 min 0 min 6,0 C 6,1 C
18.11.2012 04:15 6,1 C 99 % 1008 hPa 0,0 l/m 0,0 km/h (0 Bft) W-SW 255 0 min 0 min 6,0 C 6,1 C
18.11.2012 04:30 6,2 C 99 % 1008 hPa 0,0 l/m 0,0 km/h (0 Bft) W-SW 255 0 min 0 min 6,1 C 6,2 C
18.11.2012 04:45 6,3 C 99 % 1008 hPa 0,0 l/m 0,0 km/h (0 Bft) W-SW 255 0 min 0 min 6,2 C 6,3 C
18.11.2012 05:00 6,1 C 99 % 1008 hPa 0,0 l/m 0,0 km/h (0 Bft) W-SW 255 0 min 0 min 6,0 C 6,1 C
18.11.2012 05:15 6,1 C 99 % 1008 hPa 0,0 l/m 0,0 km/h (0 Bft) W-SW 255 0 min 0 min 6,0 C 6,1 C
18.11.2012 05:30 6,0 C 99 % 1008 hPa 0,0 l/m 0,0 km/h (0 Bft) W-SW 255 0 min 0 min 5,9 C 6,0 C
18.11.2012 05:45 6,0 C 99 % 1008 hPa 0,0 l/m 0,0 km/h (0 Bft) S45 180 0 min 0 min 5,9 C 6,0 C
18.11.2012 06:00 5,8 C 99 % 1008 hPa 0,0 l/m 0,0 km/h (0 Bft) NW 305 0 min 0 min 5,7 C 5,8 C
18.11.2012 06:15 5,6 C 99 % 1008 hPa 0,0 l/m 0,0 km/h (0 Bft) NW 305 0 min 0 min 5,5 C 5,6 C
18.11.2012 06:30 5,7 C 99 % 1008 hPa 0,0 l/m 0,0 km/h (0 Bft) NW 305 0 min 0 min 5,6 C 5,7 C
18.11.2012 06:45 5,7 C 99 % 1008 hPa 0,0 l/m 0,0 km/h (0 Bft) NW 305 0 min 0 min 5,6 C 5,7 C
18.11.2012 07:00 5,7 C 99 % 1008 hPa 0,0 l/m 0,0 km/h (0 Bft) NW 305 0 min 0 min 5,6 C 5,7 C
18.11.2012 07:15 5,8 C 99 % 1008 hPa 0,0 l/m 0,0 km/h (0 Bft) NW 305 0 min 0 min 5,7 C 5,8 C
18.11.2012 07:30 5,9 C 99 % 1008 hPa 0,0 l/m 0,0 km/h (0 Bft) NW 305 0 min 0 min 5,8 C 5,9 C
18.11.2012 07:45 5,9 C 99 % 1009 hPa 0,0 l/m 0,0 km/h (0 Bft) NW 305 0 min 0 min 5,8 C 5,9 C
18.11.2012 08:00 6,0 C 99 % 1009 hPa 0,0 l/m 0,0 km/h (0 Bft) NW 305 0 min 0 min 5,9 C 6,0 C
18.11.2012 08:15 6,0 C 99 % 1009 hPa 0,3 l/m 0,0 km/h (0 Bft) SW 215 0 min 15 min 5,9 C 6,0 C
18.11.2012 08:30 6,1 C 99 % 1009 hPa 0,0 l/m 0,0 km/h (0 Bft) SW 215 0 min 0 min 6,0 C 6,1 C
18.11.2012 08:45 6,2 C 99 % 1009 hPa 0,0 l/m 0,1 km/h (0 Bft) W-SW 250 0 min 0 min 6,1 C 6,2 C
18.11.2012 09:00 6,4 C 99 % 1009 hPa 0,0 l/m 1,4 km/h (1 Bft) W-SW22.5 255 0 min 0 min 6,3 C 6,4 C
18.11.2012 09:15 6,6 C 99 % 1009 hPa 0,3 l/m 10,7 km/h (2 Bft) W-SW22.5 255 0 min 15 min 6,5 C 3,4 C
18.11.2012 09:30 6,6 C 99 % 1009 hPa 0,0 l/m 11,3 km/h (2 Bft) W-SW22.5 255 0 min 0 min 6,5 C 3,0 C
18.11.2012 09:45 6,6 C 99 % 1009 hPa 0,0 l/m 10,2 km/h (2 Bft) W-SW22.5 250 0 min 0 min 6,5 C 3,7 C
18.11.2012 10:01 6,7 C 99 % 1009 hPa 0,0 l/m 9,2 km/h (2 Bft) W-SW22.5 250 0 min 0 min 6,6 C 4,5 C
18.11.2012 10:16 6,8 C 99 % 1009 hPa 0,0 l/m 0,0 km/h (0 Bft) W-SW 250 0 min 0 min 6,7 C 6,8 C
18.11.2012 10:30 6,8 C 99 % 1010 hPa 0,0 l/m 0,2 km/h (0 Bft) W22.5 270 0 min 0 min 6,7 C 6,8 C
18.11.2012 10:45 6,8 C 99 % 1010 hPa 0,0 l/m 7,9 km/h (2 Bft) W-SW22.5 250 0 min 0 min 6,7 C 5,6 C
18.11.2012 11:00 6,7 C 99 % 1010 hPa 0,3 l/m 0,0 km/h (0 Bft) W 260 0 min 15 min 6,6 C 6,7 C
18.11.2012 11:15 6,8 C 99 % 1010 hPa 0,0 l/m 0,0 km/h (0 Bft) W-SW 250 0 min 0 min 6,7 C 6,8 C
18.11.2012 11:31 6,8 C 99 % 1010 hPa 0,0 l/m 0,0 km/h (0 Bft) W-SW 250 0 min 0 min 6,7 C 6,8 C
18.11.2012 11:46 6,8 C 99 % 1010 hPa 0,0 l/m 0,0 km/h (0 Bft) W-SW 250 0 min 0 min 6,7 C 6,8 C
18.11.2012 12:00 6,8 C 99 % 1010 hPa 0,0 l/m 0,7 km/h (0 Bft) W-SW 250 0 min 0 min 6,7 C 6,8 C
18.11.2012 12:15 6,7 C 99 % 1010 hPa 0,0 l/m 11,1 km/h (2 Bft) W22.5 265 0 min 0 min 6,6 C 3,2 C
18.11.2012 12:30 6,6 C 99 % 1010 hPa 0,0 l/m 11,1 km/h (2 Bft) W22.5 265 0 min 0 min 6,5 C 3,1 C
18.11.2012 12:45 6,4 C 99 % 1010 hPa 0,0 l/m 11,1 km/h (2 Bft) W22.5 265 0 min 0 min 6,3 C 2,9 C
18.11.2012 13:01 6,3 C 99 % 1010 hPa 0,0 l/m 1,6 km/h (1 Bft) NW45 310 0 min 0 min 6,2 C 6,3 C
18.11.2012 13:16 6,2 C 99 % 1011 hPa 0,0 l/m 1,6 km/h (1 Bft) NW45 310 0 min 0 min 6,1 C 6,2 C
18.11.2012 13:30 6,2 C 99 % 1011 hPa 0,0 l/m 9,3 km/h (2 Bft) N-NW22.5 345 0 min 0 min 6,1 C 3,9 C
18.11.2012 13:45 6,0 C 99 % 1011 hPa 0,9 l/m 1,2 km/h (1 Bft) N22.5 360 0 min 15 min 5,9 C 6,0 C
18.11.2012 14:00 6,0 C 99 % 1011 hPa 0,0 l/m 1,2 km/h (1 Bft) N22.5 360 0 min 0 min 5,9 C 6,0 C
18.11.2012 14:15 6,0 C 98 % 1010 hPa 0,0 l/m 11,2 km/h (2 Bft) N-NO22.5 25 0 min 0 min 5,7 C 2,4 C
18.11.2012 14:31 5,9 C 98 % 1011 hPa 0,0 l/m 9,3 km/h (2 Bft) N22.5 5 0 min 0 min 5,6 C 3,6 C
18.11.2012 14:46 5,9 C 98 % 1011 hPa 0,0 l/m 8,9 km/h (2 Bft) N22.5 10 0 min 0 min 5,6 C 3,9 C
18.11.2012 15:00 5,8 C 98 % 1011 hPa 0,0 l/m 15,9 km/h (3 Bft) N-NO22.5 30 0 min 0 min 5,5 C -0,4 C
18.11.2012 15:15 5,8 C 98 % 1011 hPa 0,0 l/m 11,0 km/h (2 Bft) NO22.5 35 0 min 0 min 5,5 C 2,3 C
18.11.2012 15:30 5,8 C 98 % 1011 hPa 0,0 l/m 9,8 km/h (2 Bft) NO22.5 40 0 min 0 min 5,5 C 3,1 C
18.11.2012 15:45 5,7 C 98 % 1011 hPa 0,0 l/m 8,4 km/h (2 Bft) NO22.5 35 0 min 0 min 5,4 C 4,0 C
18.11.2012 16:01 5,7 C 98 % 1011 hPa 0,0 l/m 8,2 km/h (2 Bft) N-NO 30 0 min 0 min 5,4 C 4,2 C
18.11.2012 16:16 5,6 C 98 % 1012 hPa 0,0 l/m 10,3 km/h (2 Bft) N-NO22.5 30 0 min 0 min 5,3 C 2,5 C
18.11.2012 16:30 5,5 C 98 % 1012 hPa 0,0 l/m 10,3 km/h (2 Bft) N-NO22.5 30 0 min 0 min 5,2 C 2,4 C
18.11.2012 16:45 5,4 C 98 % 1012 hPa 0,0 l/m 14,4 km/h (3 Bft) N-NO22.5 30 0 min 0 min 5,1 C -0,1 C
18.11.2012 17:00 5,3 C 98 % 1012 hPa 0,0 l/m 7,1 km/h (2 Bft) N-NO 25 0 min 0 min 5,0 C 4,7 C
18.11.2012 17:15 5,2 C 98 % 1012 hPa 0,0 l/m 11,0 km/h (2 Bft) N22.5 10 0 min 0 min 4,9 C 1,6 C
18.11.2012 17:31 5,2 C 98 % 1012 hPa 0,0 l/m 12,6 km/h (3 Bft) N45 5 0 min 0 min 4,9 C 0,6 C
18.11.2012 17:46 5,1 C 98 % 1013 hPa 0,0 l/m 12,9 km/h (3 Bft) N-NO45 20 0 min 0 min 4,8 C 0,3 C
18.11.2012 18:00 4,9 C 98 % 1013 hPa 0,0 l/m 15,5 km/h (3 Bft) N22.5 5 0 min 0 min 4,6 C -1,3 C
18.11.2012 18:15 4,9 C 98 % 1013 hPa 0,0 l/m 13,5 km/h (3 Bft) N-NO67.5 15 0 min 0 min 4,6 C -0,2 C
18.11.2012 18:30 4,9 C 98 % 1013 hPa 0,0 l/m 11,1 km/h (2 Bft) N-NO22.5 30 0 min 0 min 4,6 C 1,2 C
18.11.2012 18:45 4,9 C 98 % 1013 hPa 0,0 l/m 11,1 km/h (2 Bft) N-NO22.5 30 0 min 0 min 4,6 C 1,2 C
18.11.2012 19:01 4,8 C 98 % 1013 hPa 0,0 l/m 6,3 km/h (2 Bft) N 5 0 min 0 min 4,5 C 4,8 C
18.11.2012 19:15 4,7 C 98 % 1013 hPa 0,0 l/m 0,0 km/h (0 Bft) N 360 0 min 0 min 4,4 C 4,7 C
18.11.2012 19:30 4,7 C 98 % 1014 hPa 0,3 l/m 8,5 km/h (2 Bft) N-NO 20 0 min 15 min 4,4 C 2,9 C
18.11.2012 19:45 4,7 C 98 % 1014 hPa 0,0 l/m 12,4 km/h (3 Bft) N-NO22.5 30 0 min 0 min 4,4 C 0,2 C
18.11.2012 20:00 4,7 C 98 % 1014 hPa 0,0 l/m 9,4 km/h (2 Bft) N-NO 25 0 min 0 min 4,4 C 2,2 C
18.11.2012 20:16 4,5 C 98 % 1014 hPa 0,0 l/m 9,8 km/h (2 Bft) N-NO67.5 15 0 min 0 min 4,2 C 1,7 C
18.11.2012 20:31 4,5 C 98 % 1014 hPa 0,0 l/m 6,9 km/h (2 Bft) N-NO 20 0 min 0 min 4,2 C 4,1 C
18.11.2012 20:45 4,5 C 98 % 1014 hPa 0,0 l/m 0,0 km/h (0 Bft) N-NO 25 0 min 0 min 4,2 C 4,5 C
18.11.2012 21:00 4,5 C 99 % 1014 hPa 0,0 l/m 9,8 km/h (2 Bft) N-NO 30 0 min 0 min 4,4 C 1,7 C
18.11.2012 21:15 4,5 C 99 % 1014 hPa 0,0 l/m 11,0 km/h (2 Bft) N-NO 25 0 min 0 min 4,4 C 0,8 C
18.11.2012 21:30 4,4 C 99 % 1014 hPa 0,0 l/m 10,3 km/h (2 Bft) N-NO 30 0 min 0 min 4,3 C 1,2 C
18.11.2012 21:46 4,5 C 99 % 1014 hPa 0,0 l/m 10,4 km/h (2 Bft) N-NO 30 0 min 0 min 4,4 C 1,2 C
18.11.2012 22:01 4,4 C 99 % 1014 hPa 0,0 l/m 6,7 km/h (2 Bft) NO 35 0 min 0 min 4,3 C 4,1 C
18.11.2012 22:15 4,5 C 99 % 1014 hPa 0,0 l/m 0,7 km/h (0 Bft) NO 35 0 min 0 min 4,4 C 4,5 C
18.11.2012 22:30 4,5 C 99 % 1014 hPa 0,0 l/m 3,2 km/h (1 Bft) NO 35 0 min 0 min 4,4 C 4,5 C
18.11.2012 22:45 4,5 C 99 % 1014 hPa 0,0 l/m 8,6 km/h (2 Bft) NO 35 0 min 0 min 4,4 C 2,6 C
18.11.2012 23:00 4,5 C 99 % 1014 hPa 0,0 l/m 4,6 km/h (1 Bft) NO 40 0 min 0 min 4,4 C 4,5 C
18.11.2012 23:01 4,5 C 99 % 1014 hPa 0,0 l/m 4,6 km/h (1 Bft) NO 40 0 min 0 min 4,4 C 4,5 C
18.11.2012 23:16 4,5 C 99 % 1014 hPa 0,0 l/m 8,6 km/h (2 Bft) NO 55 0 min 0 min 4,4 C 2,6 C
18.11.2012 23:30 4,5 C 99 % 1014 hPa 0,0 l/m 5,9 km/h (2 Bft) O-NO22.5 60 0 min 0 min 4,4 C 4,5 C
18.11.2012 23:45 4,5 C 99 % 1015 hPa 0,0 l/m 8,2 km/h (2 Bft) NO 45 0 min 0 min 4,4 C 2,9 C
18.11.2012 23:54 4,5 C 99 % 1014 hPa 0,0 l/m 8,2 km/h (2 Bft) NO 35 0 min 0 min 4,4 C 2,9 C
_ Min-Zeit 21:30 14:15 00:01 - 03:45 - - - - 20:16 18:00
Minimum _ 4,4 C 98 % 1008 hPa - 0,0 km/h (0 Bft) - - - - 4,2 C -1,3 C
_ Max-Zeit 10:16 00:01 23:45 13:45 15:00 - - 00:01 08:15 10:16 10:16
Maximum _ 6,8 C 99 % 1015 hPa 0,9 l/m 15,9 km/h
N-NO (3 Bft)
- - 0 min 15 min 6,7 C 6,8 C
Durchschnitt _ 5,7 C 99 % 1011 hPa #2,1 l/m 6,3 km/h (2 Bft) N-NO - #0 min. #1:15 h 5,5 C 3,9 C